createdAt,value
2018-09-03T00:02:05.997Z,7.30
2018-09-03T00:04:36.904Z,9.80
2018-09-03T00:07:06.889Z,6.85
2018-09-03T00:09:42.243Z,10.50
2018-09-03T00:12:13.043Z,9.75
2018-09-03T00:14:42.706Z,9.15
2018-09-03T00:17:12.406Z,7.10
2018-09-03T00:19:41.921Z,5.97
2018-09-03T00:22:11.603Z,6.10
2018-09-03T00:24:41.648Z,6.35
2018-09-03T00:27:12.552Z,6.53
2018-09-03T00:29:42.164Z,6.72
2018-09-03T00:32:16.144Z,6.58
2018-09-03T00:34:50.073Z,7.22
2018-09-03T00:37:25.238Z,7.67
2018-09-03T00:40:01.270Z,9.13
2018-09-03T00:42:36.454Z,6.87
2018-09-03T00:45:11.654Z,8.00
2018-09-03T00:47:41.161Z,8.15
2018-09-03T00:50:10.702Z,8.73
2018-09-03T00:52:40.347Z,9.40
2018-09-03T00:55:11.226Z,7.87
2018-09-03T00:57:41.845Z,10.50
2018-09-03T01:00:10.480Z,8.50
2018-09-03T01:05:07.032Z,8.45
2018-09-03T01:07:34.894Z,9.68
2018-09-03T01:10:02.829Z,9.10
2018-09-03T01:12:32.645Z,9.95
2018-09-03T01:15:00.498Z,9.17
2018-09-03T01:17:28.405Z,8.55
2018-09-03T01:19:56.261Z,9.18
2018-09-03T01:22:24.142Z,8.33
2018-09-03T01:24:52.156Z,9.75
2018-09-03T01:27:20.050Z,9.48
2018-09-03T01:29:47.932Z,10.72
2018-09-03T01:32:15.776Z,10.23
2018-09-03T01:34:43.655Z,10.28
2018-09-03T01:37:11.537Z,11.48
2018-09-03T01:39:39.382Z,11.75
2018-09-03T01:42:08.284Z,11.93
2018-09-03T01:44:36.159Z,11.65
2018-09-03T01:47:04.104Z,11.63
2018-09-03T01:49:32.010Z,11.03
2018-09-03T01:51:59.880Z,12.23
2018-09-03T01:54:54.852Z,11.80
2018-09-03T01:57:49.095Z,12.43
2018-09-03T02:00:16.933Z,13.50
2018-09-03T02:02:45.812Z,13.48
2018-09-03T02:05:13.722Z,13.88
2018-09-03T02:07:42.587Z,14.50
2018-09-03T02:10:10.435Z,13.85
2018-09-03T02:13:13.567Z,14.73
2018-09-03T02:15:41.462Z,15.23
2018-09-03T02:18:09.334Z,14.80
2018-09-03T02:20:37.233Z,14.50
2018-09-03T02:23:05.325Z,15.70
2018-09-03T02:25:33.193Z,14.75
2018-09-03T02:28:01.077Z,15.98
2018-09-03T02:30:28.980Z,15.35
2018-09-03T02:32:56.853Z,13.53
2018-09-03T02:35:24.713Z,13.00
2018-09-03T02:37:52.550Z,14.28
2018-09-03T02:40:20.486Z,13.20
2018-09-03T02:42:48.344Z,14.03
2018-09-03T02:45:16.172Z,14.90
2018-09-03T02:47:44.023Z,12.82
2018-09-03T02:50:12.880Z,13.15
2018-09-03T02:52:40.738Z,13.38
2018-09-03T02:55:08.674Z,13.20
2018-09-03T02:57:36.598Z,12.65
2018-09-03T03:00:04.745Z,12.82
2018-09-03T03:02:32.573Z,12.50
2018-09-03T03:05:00.425Z,12.80
2018-09-03T03:07:54.794Z,14.63
2018-09-03T03:10:22.785Z,13.13
2018-09-03T03:12:50.673Z,13.75
2018-09-03T03:15:18.513Z,13.88
2018-09-03T03:17:47.408Z,13.40
2018-09-03T03:20:15.268Z,14.63
2018-09-03T03:22:43.145Z,14.30
2018-09-03T03:25:11.013Z,15.58
2018-09-03T03:27:38.876Z,14.07
2018-09-03T03:30:24.923Z,14.20
2018-09-03T03:32:54.636Z,14.63
2018-09-03T03:35:22.543Z,15.65
2018-09-03T03:37:50.525Z,14.68
2018-09-03T03:40:19.013Z,14.28
2018-09-03T03:42:47.906Z,15.10
2018-09-03T03:45:15.771Z,14.63
2018-09-03T03:47:43.641Z,14.68
2018-09-03T03:50:11.518Z,15.15
2018-09-03T03:52:39.552Z,14.35
2018-09-03T03:55:07.871Z,16.62
2018-09-03T03:57:36.306Z,14.58
2018-09-03T04:00:04.299Z,15.65
2018-09-03T04:02:39.849Z,14.35
2018-09-03T04:05:07.768Z,14.40
2018-09-03T04:07:35.604Z,14.38
2018-09-03T04:10:03.481Z,14.78
2018-09-03T04:12:31.217Z,14.35
2018-09-03T04:14:58.971Z,14.03
2018-09-03T04:17:26.772Z,14.40
2018-09-03T04:20:09.258Z,14.90
2018-09-03T04:22:37.055Z,14.38
2018-09-03T04:25:04.904Z,15.05
2018-09-03T04:27:32.731Z,14.18
2018-09-03T04:30:01.560Z,13.68
2018-09-03T04:32:29.398Z,16.07
2018-09-03T04:34:57.198Z,14.28
2018-09-03T04:37:24.979Z,15.23
2018-09-03T04:39:52.723Z,14.70
2018-09-03T04:42:20.521Z,15.10
2018-09-03T04:44:48.362Z,14.23
2018-09-03T04:47:16.557Z,14.63
2018-09-03T04:49:44.309Z,16.12
2018-09-03T04:52:12.112Z,15.10
2018-09-03T04:54:39.950Z,14.38
2018-09-03T04:57:07.680Z,15.98
2018-09-03T04:59:48.480Z,14.20
2018-09-03T05:02:16.486Z,13.80
2018-09-03T05:04:44.384Z,15.68
2018-09-03T05:07:12.292Z,13.93
2018-09-03T05:09:40.211Z,13.22
2018-09-03T05:12:08.262Z,15.83
2018-09-03T05:14:36.466Z,16.30
2018-09-03T05:17:04.760Z,14.23
2018-09-03T05:19:32.621Z,14.85
2018-09-03T05:22:00.480Z,14.18
2018-09-03T05:24:28.405Z,18.52
2018-09-03T05:26:56.447Z,15.10
2018-09-03T05:29:24.610Z,14.95
2018-09-03T05:31:52.507Z,15.65
2018-09-03T05:34:20.415Z,16.87
2018-09-03T05:36:48.297Z,18.62
2018-09-03T05:39:16.164Z,15.63
2018-09-03T05:41:44.012Z,15.20
2018-09-03T05:44:11.877Z,14.23
2018-09-03T05:46:39.759Z,13.55
2018-09-03T05:49:07.682Z,14.05
2018-09-03T05:51:35.760Z,14.28
2018-09-03T05:54:03.626Z,12.78
2018-09-03T05:56:31.458Z,12.93
2018-09-03T05:58:59.409Z,14.00
2018-09-03T06:01:27.221Z,16.55
2018-09-03T06:03:55.030Z,46.08
2018-09-03T06:06:45.480Z,33.28
2018-09-03T06:09:16.302Z,11.78
2018-09-03T06:11:44.259Z,13.28
2018-09-03T06:14:12.166Z,11.80
2018-09-03T06:16:40.012Z,12.75
2018-09-03T06:19:07.828Z,10.75
2018-09-03T06:21:35.644Z,13.38
2018-09-03T06:24:03.503Z,12.78
2018-09-03T06:26:31.464Z,13.60
2018-09-03T06:28:59.291Z,12.60
2018-09-03T06:31:27.104Z,16.75
2018-09-03T06:33:54.892Z,13.15
2018-09-03T06:36:22.669Z,13.10
2018-09-03T06:38:50.565Z,13.55
2018-09-03T06:41:18.418Z,14.65
2018-09-03T06:43:46.309Z,12.18
2018-09-03T06:46:14.095Z,13.53
2018-09-03T06:48:41.930Z,11.83
2018-09-03T06:51:10.738Z,13.13
2018-09-03T06:53:38.574Z,13.03
2018-09-03T06:56:06.449Z,14.18
2018-09-03T06:58:34.273Z,13.55
2018-09-03T07:01:02.083Z,12.68
2018-09-03T07:03:29.849Z,13.75
2018-09-03T07:05:57.719Z,14.83
2018-09-03T07:08:25.560Z,14.30
2018-09-03T07:10:53.344Z,11.60
2018-09-03T07:19:05.443Z,26.33
2018-09-03T07:21:33.246Z,12.88
2018-09-03T07:24:01.021Z,12.65
2018-09-03T07:26:30.881Z,13.68
2018-09-03T07:28:58.723Z,10.80
2018-09-03T07:31:26.497Z,11.10
2018-09-03T07:33:54.333Z,12.65
2018-09-03T07:36:22.135Z,11.90
2018-09-03T07:38:49.911Z,12.20
2018-09-03T07:41:19.865Z,11.35
2018-09-03T07:43:47.648Z,11.83
2018-09-03T07:46:15.557Z,13.05
2018-09-03T07:48:44.375Z,11.22
2018-09-03T07:51:12.219Z,11.57
2018-09-03T07:53:40.018Z,11.22
2018-09-03T07:56:07.816Z,12.33
2018-09-03T07:58:36.670Z,12.50
2018-09-03T08:01:04.667Z,11.55
2018-09-03T08:03:32.433Z,10.63
2018-09-03T08:06:00.248Z,12.30
2018-09-03T08:08:29.122Z,12.15
2018-09-03T08:10:56.920Z,11.97
2018-09-03T08:13:30.354Z,11.12
2018-09-03T08:15:58.194Z,11.40
2018-09-03T08:18:25.998Z,10.55
2018-09-03T08:20:54.619Z,13.05
2018-09-03T08:23:43.833Z,13.25
2018-09-03T08:26:28.856Z,39.95
2018-09-03T08:28:56.748Z,14.10
2018-09-03T08:31:24.649Z,12.50
2018-09-03T08:33:53.558Z,14.00
2018-09-03T08:36:21.472Z,12.75
2018-09-03T08:38:57.204Z,10.15
2018-09-03T08:41:25.016Z,11.57
2018-09-03T08:43:52.831Z,16.87
2018-09-03T08:46:21.669Z,10.68
2018-09-03T08:48:49.447Z,9.63
2018-09-03T08:51:17.244Z,10.40
2018-09-03T08:53:45.046Z,8.88
2018-09-03T08:56:12.883Z,8.78
2018-09-03T08:58:40.681Z,10.75
2018-09-03T09:01:09.587Z,9.78
2018-09-03T09:03:41.019Z,8.63
2018-09-03T09:06:09.224Z,7.17
2018-09-03T09:08:38.280Z,7.60
2018-09-03T09:11:07.201Z,9.18
2018-09-03T09:13:35.142Z,7.45
2018-09-03T09:16:03.180Z,7.42
2018-09-03T09:18:31.103Z,8.60
2018-09-03T09:20:58.970Z,7.33
2018-09-03T09:23:26.769Z,6.15
2018-09-03T09:25:54.576Z,5.75
2018-09-03T09:28:23.429Z,6.15
2018-09-03T09:30:51.787Z,5.65
2018-09-03T09:33:20.651Z,6.30
2018-09-03T09:35:48.506Z,4.47
2018-09-03T09:38:16.335Z,4.58
2018-09-03T09:40:45.180Z,3.70
2018-09-03T09:43:13.061Z,4.03
2018-09-03T09:45:40.949Z,6.70
2018-09-03T09:48:08.826Z,4.67
2018-09-03T09:50:37.607Z,4.47
2018-09-03T09:53:05.523Z,5.53
2018-09-03T09:55:34.355Z,4.97
2018-09-03T10:06:14.606Z,4.67
2018-09-03T10:08:42.477Z,5.47
2018-09-03T10:11:10.261Z,5.25
2018-09-03T10:13:38.070Z,8.63
2018-09-03T10:16:05.898Z,5.05
2018-09-03T10:18:34.004Z,4.17
2018-09-03T10:21:01.864Z,4.35
2018-09-03T10:23:29.709Z,5.45
2018-09-03T10:25:57.568Z,9.93
2018-09-03T10:28:25.544Z,6.40
2018-09-03T10:30:53.347Z,8.03
2018-09-03T10:33:21.142Z,10.80
2018-09-03T10:35:49.029Z,8.90
2018-09-03T10:38:16.864Z,7.05
2018-09-03T10:40:45.679Z,6.22
2018-09-03T10:43:13.460Z,5.47
2018-09-03T10:45:43.811Z,7.87
2018-09-03T10:48:12.553Z,8.48
2018-09-03T10:50:40.420Z,5.87
2018-09-03T10:53:08.696Z,8.50
2018-09-03T10:55:36.740Z,6.55
2018-09-03T10:58:04.535Z,8.98
2018-09-03T11:00:32.383Z,4.00
2018-09-03T11:03:00.164Z,4.78
2018-09-03T11:05:28.560Z,5.90
2018-09-03T11:07:57.104Z,6.65
2018-09-03T11:10:25.485Z,4.47
2018-09-03T11:12:53.869Z,3.95
2018-09-03T11:15:22.422Z,3.85
2018-09-03T11:17:50.832Z,6.03
2018-09-03T11:20:29.463Z,3.80
2018-09-03T11:22:58.337Z,4.47
2018-09-03T11:25:28.813Z,3.77
2018-09-03T11:27:57.276Z,5.37
2018-09-03T11:30:26.266Z,6.42
2018-09-03T11:32:56.759Z,5.42
2018-09-03T11:35:25.423Z,4.08
2018-09-03T11:37:53.933Z,3.80
2018-09-03T11:40:23.124Z,2.95
2018-09-03T11:42:51.619Z,4.50
2018-09-03T11:45:21.090Z,4.47
2018-09-03T11:47:49.572Z,5.85
2018-09-03T11:50:18.763Z,3.12
2018-09-03T11:52:47.181Z,5.05
2018-09-03T11:55:15.769Z,5.78
2018-09-03T11:57:44.181Z,12.88
2018-09-03T12:00:18.364Z,9.70
2018-09-03T12:02:46.898Z,5.58
2018-09-03T12:05:15.286Z,7.47
2018-09-03T12:07:43.735Z,6.78
2018-09-03T12:10:12.282Z,5.08
2018-09-03T12:12:40.716Z,9.35
2018-09-03T12:15:16.676Z,13.18
2018-09-03T12:17:45.146Z,6.58
2018-09-03T12:20:13.569Z,8.30
2018-09-03T12:22:41.961Z,6.05
2018-09-03T12:25:10.365Z,4.72
2018-09-03T12:27:38.814Z,5.25
2018-09-03T12:30:07.701Z,5.67
2018-09-03T12:32:36.040Z,5.87
2018-09-03T12:35:04.510Z,6.45
2018-09-03T12:37:38.968Z,6.67
2018-09-03T12:40:07.432Z,2.70
2018-09-03T12:42:35.948Z,3.65
2018-09-03T12:45:04.561Z,4.80
2018-09-03T12:47:32.977Z,4.35
2018-09-03T12:50:01.514Z,4.45
2018-09-03T12:52:30.058Z,3.50
2018-09-03T12:54:58.558Z,3.95
2018-09-03T12:57:26.940Z,5.55
2018-09-03T13:00:05.135Z,3.77
2018-09-03T13:02:23.738Z,3.40
2018-09-03T13:04:52.126Z,4.75
2018-09-03T13:07:20.463Z,5.72
2018-09-03T13:09:48.887Z,7.75
2018-09-03T13:12:17.464Z,4.72
2018-09-03T13:14:45.854Z,5.40
2018-09-03T13:17:14.352Z,7.85
2018-09-03T13:19:42.775Z,4.97
2018-09-03T13:22:12.225Z,8.48
2018-09-03T13:24:40.691Z,5.58
2018-09-03T13:27:09.180Z,5.15
2018-09-03T13:29:37.631Z,9.78
2018-09-03T13:32:05.992Z,5.95
2018-09-03T13:34:34.447Z,7.72
2018-09-03T13:37:02.883Z,6.40
2018-09-03T13:39:31.280Z,6.37
2018-09-03T13:41:59.743Z,5.53
2018-09-03T13:44:29.256Z,8.18
2018-09-03T13:46:57.673Z,8.68
2018-09-03T13:49:26.042Z,5.95
2018-09-03T13:51:54.414Z,6.50
2018-09-03T13:54:22.962Z,6.35
2018-09-03T13:56:51.379Z,5.47
2018-09-03T13:59:19.863Z,7.10
2018-09-03T14:01:48.280Z,7.65
2018-09-03T14:04:16.666Z,5.53
2018-09-03T14:06:45.132Z,9.68
2018-09-03T14:09:13.557Z,11.65
2018-09-03T14:11:42.296Z,7.47
2018-09-03T14:14:10.703Z,7.12
2018-09-03T14:16:39.200Z,7.10
2018-09-03T14:19:07.652Z,4.53
2018-09-03T14:21:36.205Z,6.45
2018-09-03T14:24:04.804Z,6.72
2018-09-03T14:26:33.235Z,5.75
2018-09-03T14:29:01.762Z,5.85
2018-09-03T14:31:30.167Z,7.95
2018-09-03T14:33:58.671Z,6.20
2018-09-03T14:36:27.091Z,7.75
2018-09-03T14:38:55.604Z,6.47
2018-09-03T14:41:24.129Z,7.65
2018-09-03T14:43:52.526Z,6.95
2018-09-03T14:46:20.925Z,7.90
2018-09-03T14:48:49.320Z,8.05
2018-09-03T14:51:18.121Z,8.33
2018-09-03T14:57:16.011Z,7.65
2018-09-03T14:59:44.331Z,7.70
2018-09-03T15:02:12.299Z,9.63
2018-09-03T15:04:40.425Z,12.90
2018-09-03T15:07:08.571Z,8.20
2018-09-03T15:09:36.523Z,10.78
2018-09-03T15:12:04.527Z,9.75
2018-09-03T15:14:32.575Z,12.80
2018-09-03T15:17:00.617Z,12.37
2018-09-03T15:19:29.615Z,10.45
2018-09-03T15:21:57.560Z,14.03
2018-09-03T15:24:25.686Z,8.98
2018-09-03T15:26:53.642Z,11.15
2018-09-03T15:29:21.596Z,11.03
2018-09-03T15:31:49.631Z,13.78
2018-09-03T15:34:17.622Z,9.80
2018-09-03T15:36:45.658Z,10.90
2018-09-03T15:39:13.652Z,10.82
2018-09-03T15:41:41.819Z,11.75
2018-09-03T15:44:09.817Z,18.40
2018-09-03T15:46:37.748Z,10.98
2018-09-03T15:49:05.890Z,10.65
2018-09-03T15:51:33.750Z,11.75
2018-09-03T15:54:01.879Z,10.82
2018-09-03T15:56:29.759Z,12.13
2018-09-03T15:58:58.607Z,11.55
2018-09-03T16:01:26.400Z,9.85
2018-09-03T16:03:54.468Z,12.93
2018-09-03T16:06:22.261Z,9.85
2018-09-03T16:08:50.114Z,16.20
2018-09-03T16:11:19.810Z,12.50
2018-09-03T16:13:47.873Z,14.85
2018-09-03T16:16:15.696Z,12.90
2018-09-03T16:18:44.898Z,12.68
2018-09-03T16:21:12.712Z,12.47
2018-09-03T16:23:40.556Z,17.05
2018-09-03T16:26:08.350Z,14.85
2018-09-03T16:28:36.173Z,19.27
2018-09-03T16:31:03.992Z,18.55
2018-09-03T16:33:32.066Z,18.73
2018-09-03T16:35:59.930Z,19.92
2018-09-03T16:38:27.793Z,15.55
2018-09-03T16:40:55.633Z,18.82
2018-09-03T16:43:23.521Z,12.73
2018-09-03T16:45:52.422Z,16.85
2018-09-03T16:48:20.177Z,15.83
2018-09-03T16:50:48.114Z,18.67
2018-09-03T16:53:15.895Z,17.20
2018-09-03T16:55:43.859Z,15.40
2018-09-03T16:58:11.716Z,16.32
2018-09-03T17:00:39.624Z,16.40
2018-09-03T17:03:07.434Z,18.48
2018-09-03T17:05:35.327Z,16.37
2018-09-03T17:08:03.239Z,19.07
2018-09-03T17:10:31.108Z,14.53
2018-09-03T17:12:58.912Z,19.10
2018-09-03T17:15:26.808Z,15.58
2018-09-03T17:17:54.633Z,17.17
2018-09-03T17:20:26.288Z,12.68
2018-09-03T17:22:54.354Z,19.15
2018-09-03T17:25:22.345Z,19.77
2018-09-03T17:27:50.458Z,16.93
2018-09-03T17:30:18.560Z,18.07
2018-09-03T17:32:46.507Z,21.17
2018-09-03T17:35:14.469Z,19.48
2018-09-03T17:37:42.402Z,17.50
2018-09-03T17:40:10.366Z,20.40
2018-09-03T17:42:38.267Z,23.30
2018-09-03T17:45:06.687Z,24.45
2018-09-03T17:47:34.802Z,28.25
2018-09-03T17:50:02.759Z,21.75
2018-09-03T17:52:30.716Z,29.30
2018-09-03T17:54:58.674Z,19.77
2018-09-03T17:57:26.576Z,19.75
2018-09-03T17:59:54.541Z,21.00
2018-09-03T18:02:22.875Z,18.00
2018-09-03T18:04:50.989Z,30.70
2018-09-03T18:07:19.740Z,21.23
2018-09-03T18:09:47.768Z,22.70
2018-09-03T18:12:15.970Z,23.73
2018-09-03T18:14:43.868Z,20.72
2018-09-03T18:17:11.798Z,23.75
2018-09-03T18:19:39.818Z,26.68
2018-09-03T18:22:07.780Z,27.60
2018-09-03T18:24:35.642Z,22.10
2018-09-03T18:27:03.564Z,22.65
2018-09-03T18:29:31.956Z,23.10
2018-09-03T18:32:00.848Z,21.27
2018-09-03T18:34:29.801Z,21.93
2018-09-03T18:36:58.949Z,24.77
2018-09-03T18:39:27.845Z,25.97
2018-09-03T18:41:56.986Z,23.70
2018-09-03T18:44:25.176Z,20.48
2018-09-03T18:46:53.767Z,23.85
2018-09-03T18:49:22.261Z,22.58
2018-09-03T18:51:51.034Z,22.52
2018-09-03T18:54:19.370Z,23.60
2018-09-03T18:56:47.829Z,24.32
2018-09-03T18:59:17.311Z,21.75
2018-09-03T19:01:45.789Z,22.45
2018-09-03T19:04:14.085Z,24.02
2018-09-03T19:06:42.431Z,25.55
2018-09-03T19:09:10.819Z,25.10
2018-09-03T19:11:39.338Z,22.20
2018-09-03T19:14:11.328Z,23.87
2018-09-03T19:20:39.809Z,25.32
2018-09-03T19:23:09.293Z,24.87
2018-09-03T19:25:37.992Z,19.40
2018-09-03T19:28:06.894Z,21.45
2018-09-03T19:30:35.897Z,23.40
2018-09-03T19:33:05.133Z,22.05
2018-09-03T19:35:34.415Z,23.27
2018-09-03T19:38:03.556Z,24.77
2018-09-03T19:40:32.512Z,26.07
2018-09-03T19:43:02.186Z,24.60
2018-09-03T19:45:31.051Z,25.55
2018-09-03T19:48:00.339Z,26.37
2018-09-03T19:50:29.805Z,23.45
2018-09-03T19:52:59.237Z,27.15
2018-09-03T19:55:28.097Z,23.30
2018-09-03T19:57:57.958Z,28.77
2018-09-03T20:00:28.215Z,27.30
2018-09-03T20:03:00.197Z,28.67
2018-09-03T20:05:31.934Z,29.67
2018-09-03T20:10:41.279Z,23.85
2018-09-03T20:13:14.729Z,28.55
2018-09-03T20:15:45.378Z,28.60
2018-09-03T20:18:13.940Z,25.20
2018-09-03T20:20:42.427Z,25.30
2018-09-03T20:23:11.005Z,25.35
2018-09-03T20:25:39.334Z,24.05
2018-09-03T20:28:07.848Z,24.60
2018-09-03T20:30:36.514Z,27.60
2018-09-03T20:33:05.257Z,24.50
2018-09-03T20:35:34.704Z,25.52
2018-09-03T20:38:04.312Z,29.18
2018-09-03T20:40:33.073Z,32.50
2018-09-03T20:43:10.786Z,28.00
2018-09-03T20:45:39.919Z,26.50
2018-09-03T20:48:09.000Z,27.95
2018-09-03T20:50:38.169Z,32.28
2018-09-03T20:53:06.616Z,33.95
2018-09-03T20:55:36.002Z,29.37
2018-09-03T20:58:06.638Z,25.45
2018-09-03T21:00:35.501Z,28.32
2018-09-03T21:03:04.821Z,26.73
2018-09-03T21:05:34.090Z,23.22
2018-09-03T21:08:04.507Z,26.27
2018-09-03T21:10:33.702Z,26.35
2018-09-03T21:13:02.964Z,28.73
2018-09-03T21:15:31.647Z,23.73
2018-09-03T21:18:00.631Z,25.88
2018-09-03T21:20:29.476Z,31.70
2018-09-03T21:22:58.148Z,27.07
2018-09-03T21:25:26.445Z,28.05
2018-09-03T21:27:55.656Z,29.52
2018-09-03T21:30:24.389Z,32.28
2018-09-03T21:32:52.830Z,32.50
2018-09-03T21:35:21.313Z,30.25
2018-09-03T21:37:49.736Z,32.80
2018-09-03T21:40:18.120Z,21.60
2018-09-03T21:42:46.550Z,24.82
2018-09-03T21:45:15.088Z,21.48
2018-09-03T21:47:43.651Z,21.33
2018-09-03T21:50:12.413Z,23.87
2018-09-03T21:52:40.859Z,25.50
2018-09-03T21:55:09.435Z,27.07
2018-09-03T21:57:37.818Z,34.63
2018-09-03T22:00:06.733Z,24.55
2018-09-03T22:02:35.420Z,24.70
2018-09-03T22:05:03.883Z,25.50
2018-09-03T22:07:32.324Z,26.62
2018-09-03T22:10:00.748Z,26.27
2018-09-03T22:12:29.457Z,29.48
2018-09-03T22:14:58.642Z,27.75
2018-09-03T22:17:27.162Z,26.65
2018-09-03T22:19:55.392Z,30.55
2018-09-03T22:22:23.684Z,29.37
2018-09-03T22:24:51.952Z,30.75
2018-09-03T22:27:20.328Z,32.70
2018-09-03T22:29:48.548Z,33.33
2018-09-03T22:32:16.881Z,31.15
2018-09-03T22:34:45.122Z,34.83
2018-09-03T22:37:13.272Z,34.80
2018-09-03T22:39:41.700Z,31.12
2018-09-03T22:42:10.244Z,27.73
2018-09-03T22:44:38.463Z,33.67
2018-09-03T22:47:07.355Z,31.80
2018-09-03T22:49:35.808Z,35.28
2018-09-03T22:52:04.314Z,37.35
2018-09-03T22:54:32.844Z,31.62
2018-09-03T22:57:01.339Z,42.95
2018-09-03T22:59:29.650Z,41.30
2018-09-03T23:01:57.956Z,35.30
2018-09-03T23:04:26.410Z,38.48
2018-09-03T23:06:54.523Z,38.30
2018-09-03T23:09:22.439Z,41.08
2018-09-03T23:14:23.732Z,41.88
2018-09-03T23:16:52.706Z,30.43
2018-09-03T23:19:20.706Z,33.10
2018-09-03T23:21:48.525Z,32.88
2018-09-03T23:24:16.688Z,33.85
2018-09-03T23:26:44.528Z,25.45
2018-09-03T23:29:12.479Z,28.87
2018-09-03T23:31:40.337Z,27.50
2018-09-03T23:34:08.135Z,29.05
2018-09-03T23:36:38.114Z,25.05
2018-09-03T23:39:06.676Z,32.58
2018-09-03T23:41:34.674Z,29.52
2018-09-03T23:44:03.769Z,33.30
2018-09-03T23:47:05.601Z,30.77
2018-09-03T23:49:37.176Z,34.67
2018-09-03T23:52:15.955Z,33.58
2018-09-03T23:54:44.174Z,30.10
2018-09-03T23:57:12.027Z,31.68
2018-09-03T23:59:52.949Z,26.42
